Time;durP1;ratioP1;P1;durP2;ratioP2;P2;SDS_P1;SDS_P2;PMS_P1;PMS_P2;Temp;Humidity;BMP_temperature;BMP_pressure;BME280_temperature;BME280_humidity;BME280_pressure;Samples;Min_cycle;Max_cycle;Signal;HPM_P1;HPM_P2
2024/02/24 00:01:38;;;;;;;1.43;1.33;;;;;;;19.28;51.11;95816.75;5012871;28;20202;-28
2024/02/24 00:04:05;;;;;;;1.30;1.20;;;;;;;19.26;51.23;95814.16;5012359;28;20205;-25
2024/02/24 00:06:31;;;;;;;1.30;1.20;;;;;;;19.25;51.18;95809.91;5013110;28;20230;-25
2024/02/24 00:08:58;;;;;;;1.50;1.40;;;;;;;19.24;51.23;95804.75;5008031;28;20230;-25
2024/02/24 00:11:24;;;;;;;1.90;1.40;;;;;;;19.27;50.95;95807.41;5013163;28;20199;-25
2024/02/24 00:13:51;;;;;;;1.03;1.03;;;;;;;19.26;51.17;95810.75;5012254;28;20206;-27
2024/02/24 00:16:18;;;;;;;1.30;1.20;;;;;;;19.28;51.43;95806.56;5007259;28;20237;-25
2024/02/24 00:18:45;;;;;;;1.60;1.50;;;;;;;19.28;50.99;95811.66;5007035;28;20645;-26
2024/02/24 00:21:12;;;;;;;1.30;1.20;;;;;;;19.27;51.05;95797.22;5012287;28;20646;-25
2024/02/24 00:23:38;;;;;;;1.60;1.50;;;;;;;19.26;51.21;95798.00;5010796;28;20625;-28
2024/02/24 00:26:05;;;;;;;1.30;1.20;;;;;;;19.28;50.70;95809.09;5010820;28;20197;-25
2024/02/24 00:28:31;;;;;;;1.40;1.30;;;;;;;19.28;51.16;95798.91;5011160;28;20230;-27
2024/02/24 00:30:58;;;;;;;1.40;1.30;;;;;;;19.27;51.10;95798.06;5012285;28;20240;-25
2024/02/24 00:33:25;;;;;;;1.40;1.30;;;;;;;19.27;51.07;95792.13;5007231;28;20199;-25
2024/02/24 00:35:51;;;;;;;1.30;1.20;;;;;;;19.26;51.21;95793.78;5012420;28;20213;-26
2024/02/24 00:38:18;;;;;;;1.37;1.27;;;;;;;19.26;51.20;95795.47;5008714;28;20218;-25
2024/02/24 00:40:44;;;;;;;1.10;1.10;;;;;;;19.25;51.00;95789.53;5009338;28;20261;-25
2024/02/24 00:43:11;;;;;;;1.30;1.20;;;;;;;19.27;51.10;95804.84;5010757;28;20293;-25
2024/02/24 00:45:37;;;;;;;1.50;1.40;;;;;;;19.27;51.17;95804.84;5012026;28;20198;-25
2024/02/24 00:48:04;;;;;;;1.47;1.37;;;;;;;19.27;51.07;95804.84;5006977;28;20310;-27
2024/02/24 00:50:31;;;;;;;1.40;1.30;;;;;;;19.27;51.14;95798.06;5010711;28;20572;-25
2024/02/24 00:52:58;;;;;;;1.17;1.17;;;;;;;19.23;51.06;95792.88;5006432;28;20628;-27
2024/02/24 00:55:25;;;;;;;1.37;1.27;;;;;;;19.27;51.16;95799.78;5000863;28;20198;-25
2024/02/24 00:57:51;;;;;;;1.30;1.20;;;;;;;19.28;51.08;95804.00;5006866;28;20264;-26
2024/02/24 01:00:18;;;;;;;1.70;1.20;;;;;;;19.26;51.10;95798.88;5012151;28;20209;-27
2024/02/24 01:02:44;;;;;;;1.00;1.00;;;;;;;19.24;51.51;95800.53;5004234;28;20660;-25
2024/02/24 01:05:11;;;;;;;1.60;1.40;;;;;;;19.27;51.01;95809.97;5011762;28;20209;-25
2024/02/24 01:07:38;;;;;;;2.07;1.50;;;;;;;19.24;51.08;95808.16;5002578;28;20648;-25
2024/02/24 01:10:05;;;;;;;1.50;1.40;;;;;;;19.26;51.21;95806.50;5003815;28;20199;-25
2024/02/24 01:12:31;;;;;;;1.20;1.20;;;;;;;19.24;50.94;95804.75;5011658;28;20206;-25
2024/02/24 01:14:58;;;;;;;1.27;1.17;;;;;;;19.26;51.28;95808.19;5008473;28;20240;-29
2024/02/24 01:17:25;;;;;;;1.20;1.20;;;;;;;19.26;50.67;95811.59;5001493;28;20756;-27
2024/02/24 01:19:51;;;;;;;1.47;1.37;;;;;;;19.27;50.90;95815.88;5005668;28;20213;-25
2024/02/24 01:22:18;;;;;;;1.30;1.20;;;;;;;19.27;51.22;95820.13;5007537;28;20614;-25
2024/02/24 01:24:45;;;;;;;1.60;1.23;;;;;;;19.26;51.09;95811.59;5010980;28;20207;-25
2024/02/24 01:27:11;;;;;;;1.37;1.27;;;;;;;19.27;51.09;95809.97;5001174;28;20226;-25
2024/02/24 01:29:38;;;;;;;1.53;1.20;;;;;;;19.24;50.87;95802.22;5007266;28;20731;-28
2024/02/24 01:32:05;;;;;;;1.30;1.20;;;;;;;19.26;50.91;95811.59;5006354;28;20200;-29
2024/02/24 01:34:31;;;;;;;1.40;1.30;;;;;;;19.26;51.14;95814.16;5011766;28;20202;-25
2024/02/24 01:36:58;;;;;;;1.27;1.20;;;;;;;19.25;51.10;95815.00;5011507;28;20224;-26
2024/02/24 01:39:25;;;;;;;1.53;1.33;;;;;;;19.26;51.07;95819.25;5007354;28;20218;-25
2024/02/24 01:41:51;;;;;;;1.40;1.30;;;;;;;19.25;51.03;95820.09;5004631;28;20241;-25
2024/02/24 01:44:18;;;;;;;1.30;1.20;;;;;;;19.25;51.20;95832.81;5011900;28;20218;-26
2024/02/24 01:46:48;;;;;;;1.10;1.10;;;;;;;19.17;51.23;95821.69;5008785;28;20222;-25
2024/02/24 01:49:15;;;;;;;1.37;1.27;;;;;;;19.26;51.11;95837.06;5009092;28;20221;-25
2024/02/24 01:51:42;;;;;;;1.17;1.17;;;;;;;19.26;51.10;95839.63;5008253;28;20202;-25
2024/02/24 01:54:08;;;;;;;1.40;1.30;;;;;;;19.25;50.82;95837.91;5011183;28;20210;-25
2024/02/24 01:56:38;;;;;;;1.37;1.27;;;;;;;19.26;51.13;95838.75;4994503;28;20221;-26
2024/02/24 01:59:05;;;;;;;1.30;1.20;;;;;;;19.26;51.21;95848.94;5007099;28;20206;-25
2024/02/24 02:01:32;;;;;;;1.33;1.23;;;;;;;19.25;50.74;95843.00;5004917;28;20202;-25
2024/02/24 02:03:58;;;;;;;1.13;1.13;;;;;;;19.25;51.31;95842.16;5009838;28;20199;-26
2024/02/24 02:06:28;;;;;;;1.37;1.27;;;;;;;19.25;51.16;95843.00;4998578;28;20201;-25
2024/02/24 02:08:55;;;;;;;1.30;1.20;;;;;;;19.24;51.04;95836.19;5011207;28;20218;-26
2024/02/24 02:11:22;;;;;;;1.30;1.20;;;;;;;19.27;51.00;95835.41;5006432;28;20198;-25
2024/02/24 02:13:49;;;;;;;1.40;1.30;;;;;;;19.25;51.08;95843.00;5011230;28;20234;-25
2024/02/24 02:16:15;;;;;;;1.10;1.10;;;;;;;19.25;50.46;95845.56;5010636;28;20252;-27
2024/02/24 02:18:42;;;;;;;1.30;1.20;;;;;;;19.25;51.04;95843.00;5005957;28;20203;-25
2024/02/24 02:21:09;;;;;;;1.20;1.10;;;;;;;19.24;50.65;95846.38;5008842;28;20554;-25
2024/02/24 02:23:36;;;;;;;1.40;1.30;;;;;;;19.26;51.35;95856.56;4994105;28;20222;-26
2024/02/24 02:26:02;;;;;;;1.30;1.20;;;;;;;19.26;51.17;95852.34;5005444;28;20199;-25
2024/02/24 02:28:29;;;;;;;1.40;1.30;;;;;;;19.27;51.02;95848.16;5011622;28;20608;-25
2024/02/24 02:30:56;;;;;;;1.03;1.03;;;;;;;19.26;50.81;95846.38;5015007;28;20256;-26
2024/02/24 02:33:22;;;;;;;1.10;1.10;;;;;;;19.25;50.98;95840.47;5012109;28;20202;-25
2024/02/24 02:35:49;;;;;;;1.33;1.20;;;;;;;19.25;50.99;95840.47;5008280;28;20535;-25
2024/02/24 02:38:16;;;;;;;1.20;1.10;;;;;;;19.25;51.13;95839.59;5012716;28;20590;-25
2024/02/24 02:40:43;;;;;;;1.20;1.10;;;;;;;19.25;51.07;95855.75;5015057;28;20213;-28
2024/02/24 02:43:09;;;;;;;0.97;0.97;;;;;;;19.25;51.08;95858.28;5015068;28;20252;-26
2024/02/24 02:45:36;;;;;;;1.37;1.27;;;;;;;19.26;51.03;95866.75;5013852;28;20285;-25
2024/02/24 02:48:03;;;;;;;1.30;1.20;;;;;;;19.25;51.05;95867.63;5009046;28;20258;-30
2024/02/24 02:50:30;;;;;;;1.10;1.10;;;;;;;19.24;50.77;95869.28;5011798;28;20272;-25
2024/02/24 02:52:56;;;;;;;1.27;1.20;;;;;;;19.24;51.02;95870.97;5008417;28;20289;-25
2024/02/24 02:55:23;;;;;;;2.37;1.20;;;;;;;19.24;51.04;95869.28;5006675;28;20724;-27
2024/02/24 02:57:50;;;;;;;1.27;1.17;;;;;;;19.25;50.91;95871.03;5014108;28;20218;-25
2024/02/24 03:00:17;;;;;;;1.10;1.10;;;;;;;19.26;51.10;95869.31;5014177;28;20344;-27
2024/02/24 03:02:44;;;;;;;1.37;1.27;;;;;;;19.24;51.13;95870.97;5010985;28;20202;-28
2024/02/24 03:05:10;;;;;;;1.07;1.07;;;;;;;19.26;51.33;95874.41;5012208;28;20288;-25
2024/02/24 03:07:37;;;;;;;1.30;1.20;;;;;;;19.25;50.92;95865.94;5012032;28;20696;-25
2024/02/24 03:10:04;;;;;;;1.13;1.13;;;;;;;19.25;51.09;95862.50;5011444;28;20276;-25
2024/02/24 03:12:31;;;;;;;1.40;1.30;;;;;;;19.24;51.43;95866.75;5013831;28;20203;-25
2024/02/24 03:14:58;;;;;;;1.00;1.00;;;;;;;19.24;50.96;95863.34;5016262;28;20205;-25
2024/02/24 03:17:25;;;;;;;1.20;1.10;;;;;;;19.24;50.99;95868.44;5000560;28;20234;-25
2024/02/24 03:19:52;;;;;;;1.27;1.17;;;;;;;19.24;51.00;95873.53;5008176;28;20194;-25
2024/02/24 03:22:18;;;;;;;1.43;1.10;;;;;;;19.23;51.08;95875.22;5008293;28;20198;-25
2024/02/24 03:24:45;;;;;;;1.10;1.10;;;;;;;19.24;50.77;95873.53;5013882;28;20293;-25
2024/02/24 03:27:11;;;;;;;1.30;1.20;;;;;;;19.24;50.58;95882.03;5008381;28;20293;-25
2024/02/24 03:29:38;;;;;;;1.10;1.10;;;;;;;19.24;50.94;95887.13;5003175;28;20230;-25
2024/02/24 03:32:05;;;;;;;1.40;1.30;;;;;;;19.25;51.12;95880.34;5013283;28;20313;-25
2024/02/24 03:34:32;;;;;;;1.20;1.10;;;;;;;19.24;50.54;95883.72;5014041;28;20206;-25
2024/02/24 03:36:58;;;;;;;1.10;1.10;;;;;;;19.23;51.03;95875.22;5009956;28;20301;-26
2024/02/24 03:39:25;;;;;;;1.50;1.40;;;;;;;19.24;50.96;95878.59;5013537;28;20201;-25
2024/02/24 03:41:52;;;;;;;1.20;1.10;;;;;;;19.24;51.12;95884.56;5013701;28;20221;-26
2024/02/24 03:44:18;;;;;;;1.40;1.30;;;;;;;19.24;51.41;95881.16;5014610;28;20201;-25
2024/02/24 03:46:45;;;;;;;1.30;1.20;;;;;;;19.25;50.91;95882.88;5011021;28;20226;-26
2024/02/24 03:49:12;;;;;;;1.07;1.07;;;;;;;19.23;50.94;95885.41;5012992;28;20210;-25
2024/02/24 03:51:38;;;;;;;1.33;1.23;;;;;;;19.23;51.04;95889.66;5013826;28;20209;-25
2024/02/24 03:54:05;;;;;;;1.10;1.10;;;;;;;19.22;51.04;95878.59;5008582;28;20344;-25
2024/02/24 03:56:31;;;;;;;1.30;1.20;;;;;;;19.23;51.04;95887.09;5008326;28;20289;-27
2024/02/24 03:58:58;;;;;;;1.23;1.20;;;;;;;19.22;51.31;95893.88;5012744;28;20198;-25
2024/02/24 04:01:27;;;;;;;1.10;1.10;;;;;;;19.25;51.08;95895.63;5011809;28;20238;-25
2024/02/24 04:03:54;;;;;;;1.30;1.20;;;;;;;19.24;50.95;95892.22;5007451;28;20221;-33
2024/02/24 04:06:21;;;;;;;1.10;1.10;;;;;;;19.23;50.95;95889.66;5012567;28;20657;-26
2024/02/24 04:08:47;;;;;;;0.90;0.90;;;;;;;19.22;50.92;95893.88;5010903;28;20656;-25
2024/02/24 04:11:14;;;;;;;1.10;1.10;;;;;;;19.23;50.95;95889.66;5008190;28;20688;-25
2024/02/24 04:13:41;;;;;;;1.00;1.00;;;;;;;19.23;51.10;95893.06;5011137;28;20283;-25
2024/02/24 04:16:08;;;;;;;1.10;1.10;;;;;;;19.23;51.11;95893.06;5006997;28;20253;-25
2024/02/24 04:18:34;;;;;;;1.20;1.10;;;;;;;19.23;51.18;95889.66;5011811;28;20264;-27
2024/02/24 04:21:02;;;;;;;1.33;1.23;;;;;;;19.22;50.95;95903.22;5009811;28;20249;-25
2024/02/24 04:23:29;;;;;;;1.30;1.20;;;;;;;19.17;51.08;95890.44;5012032;28;20824;-25
2024/02/24 04:25:55;;;;;;;1.07;1.00;;;;;;;19.22;51.00;95901.50;5006503;28;20206;-25
2024/02/24 04:28:22;;;;;;;1.20;1.10;;;;;;;19.22;50.89;95903.22;5008194;28;20222;-25
2024/02/24 04:30:48;;;;;;;1.30;1.20;;;;;;;19.22;50.96;95909.16;5012375;28;20272;-25
2024/02/24 04:33:16;;;;;;;1.33;1.23;;;;;;;19.21;51.03;95904.03;5016075;28;20647;-25
2024/02/24 04:35:43;;;;;;;1.13;1.13;;;;;;;19.24;50.82;95911.72;5013088;28;20198;-25
2024/02/24 04:38:10;;;;;;;1.30;1.20;;;;;;;19.20;51.06;95909.97;5010525;28;20222;-25
2024/02/24 04:40:37;;;;;;;1.20;1.10;;;;;;;19.23;50.83;95917.66;5009901;28;20200;-25
2024/02/24 04:43:03;;;;;;;1.40;1.30;;;;;;;19.23;50.87;95921.06;5010694;28;20684;-26
2024/02/24 04:45:30;;;;;;;1.30;1.20;;;;;;;19.22;50.87;95910.88;5012409;28;20242;-25
2024/02/24 04:47:56;;;;;;;1.00;1.00;;;;;;;19.21;51.05;95910.00;5017819;28;20218;-27
2024/02/24 04:50:23;;;;;;;1.10;1.10;;;;;;;19.23;51.02;95912.56;5008730;28;20752;-29
2024/02/24 04:52:51;;;;;;;1.27;1.17;;;;;;;19.23;51.17;95921.06;5012563;28;20221;-25
2024/02/24 04:55:18;;;;;;;1.30;1.20;;;;;;;19.22;51.21;95921.88;5010110;28;20199;-25
2024/02/24 04:57:45;;;;;;;1.20;1.20;;;;;;;19.22;51.07;95928.69;5012078;28;20222;-26
2024/02/24 05:00:12;;;;;;;1.30;1.20;;;;;;;19.21;50.92;95932.06;5010157;28;20282;-25
2024/02/24 05:02:38;;;;;;;1.10;1.10;;;;;;;19.21;51.10;95925.28;5011146;28;20202;-25
2024/02/24 05:05:05;;;;;;;1.10;1.00;;;;;;;19.22;51.01;95926.16;5008273;28;20203;-25
2024/02/24 05:07:33;;;;;;;1.20;1.20;;;;;;;19.21;51.00;95917.63;5012501;28;20647;-27
2024/02/24 05:09:59;;;;;;;1.10;1.10;;;;;;;19.23;50.95;95945.66;5006076;28;20219;-25
2024/02/24 05:12:26;;;;;;;1.03;1.03;;;;;;;19.23;51.06;95958.41;5008626;28;20226;-25
2024/02/24 05:14:52;;;;;;;1.10;1.10;;;;;;;19.22;50.77;95954.16;5011788;28;20202;-26
2024/02/24 05:17:19;;;;;;;1.10;1.10;;;;;;;19.23;51.29;95951.63;5011030;28;20222;-25
2024/02/24 05:19:46;;;;;;;1.30;1.20;;;;;;;19.22;50.30;95954.16;5011742;28;20194;-25
2024/02/24 05:22:12;;;;;;;1.20;1.20;;;;;;;19.23;51.05;95943.13;5008051;28;20197;-26
2024/02/24 05:24:39;;;;;;;1.10;1.10;;;;;;;19.23;50.89;95958.41;5010714;28;20210;-26
2024/02/24 05:27:05;;;;;;;1.07;1.07;;;;;;;19.23;50.91;95969.44;5011696;28;20222;-25
2024/02/24 05:29:32;;;;;;;1.20;1.10;;;;;;;19.22;51.04;95969.44;5008864;28;20222;-25
2024/02/24 05:31:59;;;;;;;1.00;1.00;;;;;;;19.22;51.03;95969.44;5006226;28;20433;-25
2024/02/24 05:34:26;;;;;;;1.20;1.10;;;;;;;19.21;51.06;95973.66;5012133;28;20562;-25
2024/02/24 05:36:53;;;;;;;1.10;1.10;;;;;;;19.22;50.46;95969.44;5011550;28;20225;-25
2024/02/24 05:39:20;;;;;;;1.10;1.10;;;;;;;19.19;50.89;95967.69;5000443;28;20210;-30
2024/02/24 05:41:46;;;;;;;1.20;1.10;;;;;;;19.22;50.81;95969.44;5001819;28;20201;-25
2024/02/24 05:44:13;;;;;;;1.10;1.10;;;;;;;19.21;50.71;95972.78;5008384;28;20201;-25
2024/02/24 05:46:40;;;;;;;1.10;1.10;;;;;;;19.21;51.30;95988.94;5009022;28;20218;-26
2024/02/24 05:49:06;;;;;;;1.27;1.20;;;;;;;19.21;50.83;95994.03;5010917;28;20217;-25
2024/02/24 05:51:33;;;;;;;1.00;1.00;;;;;;;19.21;50.48;95986.38;5016655;28;20289;-25
2024/02/24 05:53:59;;;;;;;1.30;1.20;;;;;;;19.21;50.77;95993.16;5009605;28;20627;-28
2024/02/24 05:56:26;;;;;;;1.20;1.20;;;;;;;19.21;50.83;95983.84;5013600;28;20225;-32
2024/02/24 05:58:53;;;;;;;1.40;1.30;;;;;;;19.21;51.02;95991.50;5009214;28;20250;-25
2024/02/24 06:01:20;;;;;;;1.20;1.20;;;;;;;19.21;50.85;96003.34;5006722;28;20198;-25
2024/02/24 06:03:46;;;;;;;1.30;1.20;;;;;;;19.20;51.05;96004.19;5008085;28;20198;-25
2024/02/24 06:06:13;;;;;;;1.20;1.20;;;;;;;19.20;50.95;96005.06;5013364;28;20276;-25
2024/02/24 06:08:40;;;;;;;1.20;1.20;;;;;;;19.20;51.20;96006.75;5013658;28;20712;-25
2024/02/24 06:11:07;;;;;;;1.30;1.20;;;;;;;19.21;50.97;96009.31;5009521;28;20299;-30
2024/02/24 06:13:34;;;;;;;1.03;1.03;;;;;;;19.22;50.80;96007.63;5015266;28;20198;-25
2024/02/24 06:16:00;;;;;;;1.20;1.20;;;;;;;19.15;50.98;95995.63;5014117;28;20252;-25
2024/02/24 06:18:30;;;;;;;1.27;1.17;;;;;;;19.20;50.81;96002.50;5014561;28;20292;-27
2024/02/24 06:20:57;;;;;;;1.27;1.20;;;;;;;19.21;50.94;96000.81;5008733;28;20222;-25
2024/02/24 06:23:24;;;;;;;1.00;1.00;;;;;;;19.21;50.61;96008.44;5014944;28;20202;-25
2024/02/24 06:25:50;;;;;;;1.10;1.10;;;;;;;19.20;51.23;96020.34;5007015;28;20208;-25
2024/02/24 06:28:17;;;;;;;1.30;1.20;;;;;;;19.22;50.60;96016.09;5014613;28;20305;-25
2024/02/24 06:30:45;;;;;;;1.17;1.17;;;;;;;19.20;50.28;96019.47;5010193;28;20246;-28
2024/02/24 06:33:12;;;;;;;1.00;1.00;;;;;;;19.21;50.36;96027.13;5013736;28;20213;-26
2024/02/24 06:35:38;;;;;;;1.27;1.20;;;;;;;19.19;50.53;96031.34;5014971;28;20592;-25
2024/02/24 06:38:05;;;;;;;8.73;1.60;;;;;;;19.20;50.69;96030.53;5012686;28;20222;-25
2024/02/24 06:40:32;;;;;;;1.10;1.10;;;;;;;19.19;50.38;96033.88;5012905;28;20198;-25
2024/02/24 06:43:11;;;;;;;1.20;1.20;;;;;;;19.20;50.88;96043.25;5015035;28;20225;-25
2024/02/24 06:45:38;;;;;;;4.33;1.30;;;;;;;19.20;50.70;96047.47;5013829;28;20283;-25
2024/02/24 06:48:05;;;;;;;2.47;1.30;;;;;;;19.20;50.56;96050.03;5007759;28;20246;-27
2024/02/24 06:50:31;;;;;;;1.30;1.20;;;;;;;19.19;50.83;96054.25;5018584;28;20230;-25
2024/02/24 06:52:58;;;;;;;1.37;1.23;;;;;;;19.19;49.41;96056.81;5017488;28;20201;-25
2024/02/24 06:55:24;;;;;;;2.80;2.00;;;;;;;19.19;46.96;96051.72;5012565;28;20281;-28
2024/02/24 06:57:51;;;;;;;2.20;2.00;;;;;;;19.19;45.74;96053.44;5009159;28;20253;-25
2024/02/24 07:00:18;;;;;;;2.03;1.83;;;;;;;19.15;46.80;96049.97;5012448;28;20190;-25
2024/02/24 07:02:46;;;;;;;1.90;1.80;;;;;;;19.14;46.62;96058.44;5010602;28;20210;-25
2024/02/24 07:05:12;;;;;;;6.07;2.00;;;;;;;19.13;45.31;96066.91;5011070;28;20592;-25
2024/02/24 07:07:39;;;;;;;3.37;2.67;;;;;;;19.12;44.48;96067.75;5017235;28;20305;-25
2024/02/24 07:10:06;;;;;;;3.43;2.77;;;;;;;19.13;44.19;96081.34;5009698;28;20214;-25
2024/02/24 07:12:33;;;;;;;4.03;2.63;;;;;;;19.12;41.87;96089.78;5008226;28;20213;-27
2024/02/24 07:15:00;;;;;;;3.60;2.83;;;;;;;19.11;41.87;96100.81;5009198;28;20562;-27
2024/02/24 07:17:27;;;;;;;3.43;2.90;;;;;;;19.10;41.50;96110.13;5015056;28;20231;-25
2024/02/24 07:19:54;;;;;;;2.80;2.60;;;;;;;19.08;40.43;96108.41;5017790;28;20201;-26
2024/02/24 07:22:21;;;;;;;4.57;2.87;;;;;;;19.07;41.03;96111.78;5012532;28;20203;-25
2024/02/24 07:24:47;;;;;;;3.00;2.70;;;;;;;19.05;40.76;96121.94;5013707;28;20206;-25
2024/02/24 07:27:14;;;;;;;3.23;2.90;;;;;;;19.07;40.43;96138.09;5013223;28;20219;-26
2024/02/24 07:29:41;;;;;;;2.80;2.60;;;;;;;19.03;40.38;96146.53;5007621;28;20230;-25
2024/02/24 07:32:08;;;;;;;5.03;2.90;;;;;;;19.00;40.49;96146.47;5010314;28;20199;-26
2024/02/24 07:34:35;;;;;;;3.13;2.57;;;;;;;19.00;41.15;96151.56;5013276;28;20249;-25
2024/02/24 07:37:02;;;;;;;2.87;2.37;;;;;;;19.00;42.14;96150.69;5013139;28;20222;-25
2024/02/24 07:39:28;;;;;;;2.60;2.40;;;;;;;19.01;43.32;96152.44;5012107;28;20213;-30
2024/02/24 07:41:55;;;;;;;2.47;2.30;;;;;;;19.01;43.16;96157.53;5009941;28;20195;-25
2024/02/24 07:44:22;;;;;;;2.90;2.60;;;;;;;19.02;44.19;96169.41;5012639;28;20256;-25
2024/02/24 07:46:49;;;;;;;2.37;2.17;;;;;;;19.01;44.97;96175.34;5012934;28;20273;-27
2024/02/24 07:49:15;;;;;;;2.07;1.97;;;;;;;19.02;45.47;96180.47;5011810;28;20206;-25
2024/02/24 07:51:43;;;;;;;2.53;2.33;;;;;;;19.00;45.89;96174.47;5012963;28;20203;-25
2024/02/24 07:54:09;;;;;;;2.40;2.20;;;;;;;19.02;46.04;96180.47;5003396;28;20198;-26
2024/02/24 07:56:36;;;;;;;2.37;2.10;;;;;;;19.03;46.81;96191.47;5009585;28;20604;-25
2024/02/24 07:59:03;;;;;;;3.20;2.17;;;;;;;19.02;46.89;96185.56;5012918;28;20210;-25
2024/02/24 08:01:29;;;;;;;2.20;2.00;;;;;;;19.03;46.87;96186.38;5004577;28;20265;-26
2024/02/24 08:03:56;;;;;;;2.37;2.17;;;;;;;19.02;46.95;96188.09;5011051;28;20208;-25
2024/02/24 08:06:23;;;;;;;2.13;2.03;;;;;;;19.03;47.42;96186.38;5013593;28;20661;-26
2024/02/24 08:08:49;;;;;;;2.37;2.10;;;;;;;19.03;46.95;96199.97;5011250;28;20202;-25
2024/02/24 08:11:16;;;;;;;2.10;2.00;;;;;;;19.04;47.23;96199.13;5013206;28;20233;-26
2024/02/24 08:13:43;;;;;;;2.20;2.07;;;;;;;19.04;47.56;96198.31;5009675;28;20203;-25
2024/02/24 08:16:10;;;;;;;2.57;2.10;;;;;;;19.04;47.15;96203.41;5009669;28;20226;-25
2024/02/24 08:18:36;;;;;;;2.07;1.87;;;;;;;19.06;47.50;96202.59;5011785;28;20210;-26
2024/02/24 08:21:06;;;;;;;2.10;1.90;;;;;;;19.05;47.56;96215.28;4999423;28;20199;-25
2024/02/24 08:23:35;;;;;;;2.00;1.90;;;;;;;19.06;47.66;96217.84;5008145;28;20205;-25
2024/02/24 08:26:03;;;;;;;2.37;2.17;;;;;;;19.06;46.66;96217.84;5004679;28;20208;-26
2024/02/24 08:28:29;;;;;;;3.00;2.47;;;;;;;19.05;47.06;96226.34;5006339;28;20640;-25
2024/02/24 08:30:59;;;;;;;2.23;2.03;;;;;;;19.07;47.49;96239.09;5010698;28;20222;-25
2024/02/24 08:33:26;;;;;;;3.13;2.30;;;;;;;19.06;47.67;96250.97;5008595;28;20252;-25
2024/02/24 08:35:53;;;;;;;2.17;1.97;;;;;;;19.05;48.01;96250.94;5011006;28;20203;-27
2024/02/24 08:38:20;;;;;;;1.87;1.73;;;;;;;19.05;48.13;96246.72;5017109;28;20218;-25
2024/02/24 08:40:47;;;;;;;2.07;1.97;;;;;;;19.05;48.03;96250.94;5006049;28;20202;-26
2024/02/24 08:43:13;;;;;;;2.10;1.90;;;;;;;19.05;47.99;96251.81;5009659;28;20271;-25
2024/02/24 08:45:41;;;;;;;2.47;2.10;;;;;;;19.06;48.17;96258.59;5010895;28;20233;-25
2024/02/24 08:48:09;;;;;;;2.27;1.93;;;;;;;19.05;48.42;96262.00;5006502;28;20250;-25
2024/02/24 08:50:36;;;;;;;2.17;2.00;;;;;;;19.06;48.52;96265.38;5011378;28;20296;-25
2024/02/24 08:53:03;;;;;;;2.47;2.10;;;;;;;19.06;48.67;96268.78;5002194;28;20202;-25
2024/02/24 08:55:29;;;;;;;2.13;1.93;;;;;;;19.07;48.35;96278.13;5014681;28;20206;-25
2024/02/24 08:57:56;;;;;;;2.10;1.87;;;;;;;19.09;49.01;96270.53;5009096;28;20249;-25
2024/02/24 09:00:22;;;;;;;1.90;1.80;;;;;;;19.08;48.66;96276.44;5009427;28;20226;-25
2024/02/24 09:02:49;;;;;;;2.07;1.93;;;;;;;19.06;48.71;96273.88;5015427;28;20661;-25
2024/02/24 09:05:16;;;;;;;1.90;1.80;;;;;;;19.07;48.95;96265.41;5005818;28;20203;-25
2024/02/24 09:07:42;;;;;;;2.00;1.87;;;;;;;19.06;48.74;96271.31;5004736;28;20229;-25
2024/02/24 09:10:09;;;;;;;2.30;1.80;;;;;;;19.07;48.75;96259.47;5006632;28;20600;-26
2024/02/24 09:12:36;;;;;;;2.20;2.00;;;;;;;19.08;48.83;96263.72;5012234;28;20233;-25
2024/02/24 09:15:03;;;;;;;2.27;1.83;;;;;;;19.07;48.76;96267.94;5007672;28;20201;-26
2024/02/24 09:17:30;;;;;;;2.07;1.97;;;;;;;19.08;49.10;96271.34;5017191;28;20238;-25
2024/02/24 09:19:56;;;;;;;2.10;1.90;;;;;;;19.08;49.01;96271.34;5017640;28;20202;-33
2024/02/24 09:22:23;;;;;;;1.80;1.70;;;;;;;19.06;48.89;96283.19;5008129;28;20748;-25
2024/02/24 09:24:50;;;;;;;2.37;2.03;;;;;;;19.08;49.07;96294.28;5003029;28;20199;-25
2024/02/24 09:27:16;;;;;;;2.30;1.63;;;;;;;19.03;49.59;96288.22;5011894;28;20218;-25
2024/02/24 09:29:43;;;;;;;2.13;2.00;;;;;;;19.07;49.15;96305.28;5001963;28;20268;-29
2024/02/24 09:32:09;;;;;;;1.63;1.53;;;;;;;19.08;49.19;96307.88;5004282;28;20724;-25
2024/02/24 09:34:36;;;;;;;1.70;1.60;;;;;;;19.07;49.17;96310.38;5013642;28;20206;-25
2024/02/24 09:37:05;;;;;;;1.80;1.60;;;;;;;19.06;49.25;96304.44;5017968;28;20307;-26
2024/02/24 09:39:31;;;;;;;1.93;1.73;;;;;;;19.06;49.49;96299.34;5015028;28;20264;-28
2024/02/24 09:41:59;;;;;;;1.63;1.50;;;;;;;19.07;49.25;96316.31;5008546;28;20203;-25
2024/02/24 09:44:28;;;;;;;1.80;1.70;;;;;;;19.07;49.34;96311.22;5012034;28;20202;-25
2024/02/24 09:46:57;;;;;;;1.57;1.33;;;;;;;19.05;49.44;96302.72;5012368;28;20226;-25
2024/02/24 09:49:24;;;;;;;2.03;1.80;;;;;;;19.07;49.49;96313.78;5009276;28;20624;-27
2024/02/24 09:51:52;;;;;;;4.03;1.83;;;;;;;19.07;49.52;96308.69;4992142;28;20217;-25
2024/02/24 09:54:19;;;;;;;1.60;1.50;;;;;;;19.08;49.42;96314.66;5011221;28;20201;-27
2024/02/24 09:56:46;;;;;;;1.90;1.47;;;;;;;19.04;49.28;96308.63;5009304;28;20250;-30
2024/02/24 09:59:13;;;;;;;2.10;1.90;;;;;;;19.05;49.76;96314.59;5004482;28;20209;-25
2024/02/24 10:01:39;;;;;;;1.87;1.63;;;;;;;19.08;49.45;96319.72;5010374;28;20277;-25
2024/02/24 10:04:06;;;;;;;2.10;1.70;;;;;;;19.07;49.41;96330.75;5010993;28;20297;-25
2024/02/24 10:06:34;;;;;;;2.10;1.67;;;;;;;19.06;49.09;96324.81;5026141;28;20233;-25
2024/02/24 10:09:01;;;;;;;1.80;1.70;;;;;;;19.06;49.16;96329.88;5009004;28;20202;-31
2024/02/24 10:11:28;;;;;;;1.60;1.50;;;;;;;19.05;49.65;96333.28;5021302;28;20228;-26
2024/02/24 10:13:55;;;;;;;2.37;1.80;;;;;;;19.07;49.60;96343.50;5010505;28;20466;-25
2024/02/24 10:16:25;;;;;;;1.50;1.40;;;;;;;19.06;49.62;96332.44;5013393;28;20212;-25
2024/02/24 10:18:51;;;;;;;1.90;1.53;;;;;;;19.07;49.57;96344.31;5004650;28;20198;-25
2024/02/24 10:21:19;;;;;;;2.03;1.70;;;;;;;19.08;49.66;96340.97;5002908;28;20667;-25
2024/02/24 10:23:48;;;;;;;1.80;1.70;;;;;;;19.07;50.00;96343.50;5011000;28;20234;-25
2024/02/24 10:26:15;;;;;;;2.77;1.70;;;;;;;19.07;49.44;96341.78;5001931;28;20203;-26
2024/02/24 10:28:41;;;;;;;1.63;1.53;;;;;;;19.06;49.82;96345.16;5006737;28;20194;-27
2024/02/24 10:31:08;;;;;;;3.07;1.80;;;;;;;19.04;49.85;96335.78;5007861;28;20225;-26
2024/02/24 10:33:35;;;;;;;1.73;1.63;;;;;;;19.04;48.94;96335.78;5017933;28;20248;-25
2024/02/24 10:36:04;;;;;;;1.60;1.50;;;;;;;19.09;49.11;96336.72;5009230;28;21606;-28
2024/02/24 10:38:31;;;;;;;4.10;1.60;;;;;;;19.10;49.37;96341.84;5007321;28;20768;-27
2024/02/24 10:41:08;;;;;;;2.13;1.50;;;;;;;19.10;49.46;96335.91;5009693;28;20202;-25
2024/02/24 10:43:35;;;;;;;1.60;1.50;;;;;;;19.11;49.62;96332.53;5015423;28;20253;-25
2024/02/24 10:46:01;;;;;;;1.53;1.40;;;;;;;19.12;49.60;96342.75;5010200;28;20195;-27
2024/02/24 10:48:28;;;;;;;1.70;1.60;;;;;;;19.13;49.56;96353.81;5008944;28;20219;-25
2024/02/24 10:50:55;;;;;;;1.70;1.60;;;;;;;19.12;49.21;96344.41;5014678;28;20588;-25
2024/02/24 10:53:27;;;;;;;1.60;1.50;;;;;;;19.17;49.67;96351.34;5010745;28;20207;-25
2024/02/24 10:55:55;;;;;;;1.40;1.30;;;;;;;19.19;49.48;96352.22;5009160;28;20202;-25
2024/02/24 10:58:22;;;;;;;1.87;1.70;;;;;;;19.19;49.66;96347.13;5012968;28;20214;-25
2024/02/24 11:00:53;;;;;;;3.03;1.60;;;;;;;19.21;49.66;96353.13;5014882;28;20245;-25
2024/02/24 11:03:20;;;;;;;1.50;1.40;;;;;;;19.21;49.70;96350.56;5005345;28;20249;-25
2024/02/24 11:05:48;;;;;;;1.73;1.40;;;;;;;19.22;49.60;96354.81;5012313;28;20256;-25
2024/02/24 11:08:34;;;;;;;1.67;1.57;;;;;;;19.24;49.67;96352.31;5012647;28;20222;-25
2024/02/24 11:11:05;;;;;;;1.83;1.43;;;;;;;19.27;49.50;96352.44;5013263;28;20218;-25
2024/02/24 11:13:32;;;;;;;1.57;1.47;;;;;;;19.27;49.52;96349.88;5006153;28;20205;-26
2024/02/24 11:15:59;;;;;;;1.70;1.60;;;;;;;19.25;49.62;96354.03;5009374;28;20726;-25
2024/02/24 11:18:48;;;;;;;2.83;1.80;;;;;;;19.24;49.67;96358.25;5032437;22;20303;-26
2024/02/24 11:21:19;;;;;;;1.90;1.60;;;;;;;19.25;49.76;96362.56;5015975;28;20288;-25
2024/02/24 11:23:47;;;;;;;2.10;1.70;;;;;;;19.25;49.59;96354.91;5010654;28;20562;-25
2024/02/24 11:26:19;;;;;;;1.50;1.40;;;;;;;19.22;49.60;96344.63;5015167;28;20245;-25
2024/02/24 11:28:46;;;;;;;1.60;1.50;;;;;;;19.20;49.82;96355.63;5023662;28;20747;-25
2024/02/24 11:31:34;;;;;;;2.67;1.57;;;;;;;19.20;49.72;96353.09;5017872;28;20219;-25
2024/02/24 11:34:10;;;;;;;1.60;1.50;;;;;;;19.18;49.83;96349.63;5017661;28;20260;-27